Morgan, PA (15064)

11:14 AM EST on February 14, 2016 (GMT -0500)
APRSWXNET | | Change Station
CLOSE
Current Station
Personal Weather Station
Location: Cuddy, PA
Elevation: 1180 ft
Nearby Weather Stations

Elev 1180 ft 40.36 °N, 80.17 °W | Updated 22 minutes ago

Clear
Clear
15 °F
Feels Like 15 °F
N
0
Wind Variable Wind from NE
Gusts 3.0 mph

Today
High -- | Low -- °F
--% Chance of Precip.
Yesterday
High -- | Low -- °F
Precip. -- in
Pressure 30.56 in
Visibility 10.0 miles
Clouds Few 3500 ft
Scattered Clouds 25000 ft
Windchill 15 °F
Dew Point 4 °F
Humidity 62%
Rainfall in
Snow Depth Not available.
7:15 AM 5:54 PM
Waxing Crescent, 43% visible
METAR KPIT 141551Z 00000KT 10SM FEW035 SCT250 M11/M18 A3045 RMK AO2 SLP347 T11111183
Pressure 30.56 in
Visibility 10.0 miles
Clouds Few 3500 ft
Scattered Clouds 25000 ft
Windchill 15 °F
Dew Point 4 °F
Humidity 62%
Rainfall in
Snow Depth Not available.
7:15 AM 5:54 PM
Waxing Crescent, 43% visible
METAR KPIT 141551Z 00000KT 10SM FEW035 SCT250 M11/M18 A3045 RMK AO2 SLP347 T11111183

10-Day Weather Forecast

Almanac

Astronomy

Feb. 14, 2016 Rise Set
Actual Time
Civil Twilight
Nautical Twilight
Astronomical Twilight
Moon
Length of Visible Light
Length of Day
Tomorrow will be .
, % of the Moon is Illuminated

Today's Extremes

State Highs State Lows

Community

WunderPhotos

Upload Photos

1,892,828 photos uploaded!

WunderBlog® & News

Nearby

Air Quality

  Air Quality AQ Index Pollutant
Not available.

Snow Depth

Station Depth Elevation

Earthquake Activity

City Distance Mag. Time & Date
Minimum magnitude displayed is 2.5.

Coastal Water Temperatures

Place Temperature

Stations

Nearby Weather Stations

Station Location Temp. Windchill Dew Point Humidity Wind Precip. Elev Updated Type
                   

Watches & Warnings

There are currently no watches in effect.